Time,TemperatureF,DewpointF,PressureIn,WindDirection,WindDirectionDegrees,WindSpeedMPH,WindSpeedGustMPH,Humidity,HourlyPrecipIn,Conditions,Clouds,dailyrainin,SoftwareType,DateUTC
2013-05-02 00:10:00,46.7,38.0,30.43,East,93,0.0,0.0,72,0.00,,,0.00,weatherlink.com 1.10,2013-05-02 04:10:00,
2013-05-02 00:25:00,47.0,39.0,30.43,East,93,0.0,0.0,73,0.00,,,0.00,weatherlink.com 1.10,2013-05-02 04:25:00,
2013-05-02 00:40:00,46.6,39.0,30.43,East,92,0.0,0.0,75,0.00,,,0.00,weatherlink.com 1.10,2013-05-02 04:40:00,
2013-05-02 00:55:00,46.0,39.0,30.43,East,92,0.0,0.0,76,0.00,,,0.00,weatherlink.com 1.10,2013-05-02 04:55:00,
2013-05-02 01:10:00,45.9,39.0,30.42,East,92,0.0,0.0,78,0.00,,,0.00,weatherlink.com 1.10,2013-05-02 05:10:00,
2013-05-02 01:25:00,45.5,39.0,30.42,East,92,0.0,0.0,79,0.00,,,0.00,weatherlink.com 1.10,2013-05-02 05:25:00,
2013-05-02 01:40:00,45.0,39.0,30.42,East,92,0.0,0.0,80,0.00,,,0.00,weatherlink.com 1.10,2013-05-02 05:40:00,
2013-05-02 01:55:00,45.0,40.0,30.41,East,92,0.0,0.0,81,0.00,,,0.00,weatherlink.com 1.10,2013-05-02 05:55:00,
2013-05-02 02:10:00,44.9,39.0,30.41,East,92,0.0,0.0,81,0.00,,,0.00,weatherlink.com 1.10,2013-05-02 06:10:00,
2013-05-02 02:25:00,44.9,40.0,30.41,East,93,0.0,0.0,82,0.00,,,0.00,weatherlink.com 1.10,2013-05-02 06:25:00,
2013-05-02 02:40:00,44.6,39.0,30.41,East,92,0.0,0.0,82,0.00,,,0.00,weatherlink.com 1.10,2013-05-02 06:40:00,
2013-05-02 02:55:00,44.3,40.0,30.41,East,92,0.0,0.0,84,0.00,,,0.00,weatherlink.com 1.10,2013-05-02 06:55:00,
2013-05-02 03:10:00,44.0,40.0,30.41,East,92,0.0,0.0,85,0.00,,,0.00,weatherlink.com 1.10,2013-05-02 07:10:00,
2013-05-02 03:25:00,43.7,40.0,30.41,East,93,0.0,0.0,85,0.00,,,0.00,weatherlink.com 1.10,2013-05-02 07:25:00,
2013-05-02 03:40:00,43.2,39.0,30.41,East,92,0.0,0.0,86,0.00,,,0.00,weatherlink.com 1.10,2013-05-02 07:40:00,
2013-05-02 03:55:00,43.2,40.0,30.41,East,93,0.0,0.0,87,0.00,,,0.00,weatherlink.com 1.10,2013-05-02 07:55:00,
2013-05-02 04:10:00,43.0,39.0,30.41,East,92,0.0,0.0,87,0.00,,,0.00,weatherlink.com 1.10,2013-05-02 08:10:00,
2013-05-02 04:25:00,42.6,39.0,30.40,East,93,0.0,0.0,88,0.00,,,0.00,weatherlink.com 1.10,2013-05-02 08:25:00,
2013-05-02 04:40:00,42.1,39.0,30.40,East,93,0.0,0.0,88,0.00,,,0.00,weatherlink.com 1.10,2013-05-02 08:40:00,
2013-05-02 04:55:00,42.4,39.0,30.41,East,93,0.0,0.0,89,0.00,,,0.00,weatherlink.com 1.10,2013-05-02 08:55:00,
2013-05-02 05:10:00,42.2,40.0,30.41,East,93,0.0,0.0,90,0.00,,,0.00,weatherlink.com 1.10,2013-05-02 09:10:00,
2013-05-02 05:25:00,41.7,39.0,30.41,East,92,0.0,0.0,90,0.00,,,0.00,weatherlink.com 1.10,2013-05-02 09:25:00,
2013-05-02 05:41:00,41.8,39.0,30.41,East,92,0.0,0.0,91,0.00,,,0.00,weatherlink.com 1.10,2013-05-02 09:41:00,
2013-05-02 05:56:00,42.0,40.0,30.41,East,92,0.0,0.0,91,0.00,,,0.00,weatherlink.com 1.10,2013-05-02 09:56:00,
2013-05-02 06:11:00,42.1,40.0,30.41,East,92,0.0,0.0,91,0.00,,,0.00,weatherlink.com 1.10,2013-05-02 10:11:00,
2013-05-02 06:26:00,42.6,41.0,30.41,East,93,0.0,0.0,92,0.00,,,0.00,weatherlink.com 1.10,2013-05-02 10:26:00,
2013-05-02 06:41:00,43.6,42.0,30.41,East,92,0.0,0.0,92,0.00,,,0.00,weatherlink.com 1.10,2013-05-02 10:41:00,
2013-05-02 06:56:00,46.1,44.0,30.41,East,93,0.0,0.0,92,0.00,,,0.00,weatherlink.com 1.10,2013-05-02 10:56:00,
2013-05-02 07:11:00,47.9,44.0,30.42,East,92,0.0,0.0,86,0.00,,,0.00,weatherlink.com 1.10,2013-05-02 11:11:00,
2013-05-02 07:26:00,49.5,44.0,30.42,WSW,238,0.0,0.0,81,0.00,,,0.00,weatherlink.com 1.10,2013-05-02 11:26:00,
2013-05-02 07:41:00,51.6,45.0,30.42,ESE,114,0.0,0.0,78,0.00,,,0.00,weatherlink.com 1.10,2013-05-02 11:41:00,
2013-05-02 07:56:00,54.0,45.0,30.42,SW,221,0.0,0.0,72,0.00,,,0.00,weatherlink.com 1.10,2013-05-02 11:56:00,
2013-05-02 08:11:00,56.2,45.0,30.42,WNW,296,2.0,3.0,66,0.00,,,0.00,weatherlink.com 1.10,2013-05-02 12:11:00,
2013-05-02 08:26:00,58.4,45.0,30.42,West,267,0.0,1.0,62,0.00,,,0.00,weatherlink.com 1.10,2013-05-02 12:26:00,
2013-05-02 08:41:00,60.5,46.0,30.43,WNW,298,1.0,3.0,59,0.00,,,0.00,weatherlink.com 1.10,2013-05-02 12:41:00,
2013-05-02 08:56:00,61.4,45.0,30.42,NW,313,0.0,1.0,56,0.00,,,0.00,weatherlink.com 1.10,2013-05-02 12:56:00,
2013-05-02 09:11:00,63.4,45.0,30.41,NNW,344,0.0,2.0,52,0.00,,,0.00,weatherlink.com 1.10,2013-05-02 13:11:00,
2013-05-02 09:26:00,63.9,44.0,30.41,ESE,118,0.0,2.0,49,0.00,,,0.00,weatherlink.com 1.10,2013-05-02 13:26:00,
2013-05-02 09:41:00,64.4,44.0,30.41,WSW,240,1.0,3.0,48,0.00,,,0.00,weatherlink.com 1.10,2013-05-02 13:41:00,
2013-05-02 09:56:00,66.0,44.0,30.41,SW,226,1.0,2.0,45,0.00,,,0.00,weatherlink.com 1.10,2013-05-02 13:56:00,
2013-05-02 10:11:00,68.5,44.0,30.41,East,98,0.0,2.0,41,0.00,,,0.00,weatherlink.com 1.10,2013-05-02 14:11:00,
2013-05-02 10:26:00,68.7,43.0,30.41,WSW,250,0.0,2.0,40,0.00,,,0.00,weatherlink.com 1.10,2013-05-02 14:26:00,
2013-05-02 10:41:00,70.2,43.0,30.40,NW,312,1.0,3.0,37,0.00,,,0.00,weatherlink.com 1.10,2013-05-02 14:41:00,
2013-05-02 10:56:00,70.5,41.0,30.39,SW,223,0.0,3.0,34,0.00,,,0.00,weatherlink.com 1.10,2013-05-02 14:56:00,
2013-05-02 11:11:00,72.7,42.0,30.39,ESE,110,0.0,2.0,33,0.00,,,0.00,weatherlink.com 1.10,2013-05-02 15:11:00,
2013-05-02 11:27:00,73.2,39.0,30.38,NNW,337,0.0,3.0,29,0.00,,,0.00,weatherlink.com 1.10,2013-05-02 15:27:00,
2013-05-02 11:42:00,74.5,41.0,30.38,NNW,333,2.0,3.0,30,0.00,,,0.00,weatherlink.com 1.10,2013-05-02 15:42:00,
2013-05-02 11:57:00,74.5,41.0,30.37,NNW,332,1.0,3.0,30,0.00,,,0.00,weatherlink.com 1.10,2013-05-02 15:57:00,
2013-05-02 12:12:00,75.2,40.0,30.36,East,100,5.0,7.0,28,0.00,,,0.00,weatherlink.com 1.10,2013-05-02 16:12:00,
2013-05-02 12:27:00,74.9,41.0,30.36,ENE,69,0.0,7.0,29,0.00,,,0.00,weatherlink.com 1.10,2013-05-02 16:27:00,
2013-05-02 12:42:00,75.1,40.0,30.36,West,261,1.0,4.0,28,0.00,,,0.00,weatherlink.com 1.10,2013-05-02 16:42:00,
2013-05-02 12:57:00,75.4,40.0,30.35,SSE,162,0.0,3.0,28,0.00,,,0.00,weatherlink.com 1.10,2013-05-02 16:57:00,
2013-05-02 13:12:00,77.7,40.0,30.35,NNW,333,1.0,2.0,26,0.00,,,0.00,weatherlink.com 1.10,2013-05-02 17:12:00,
2013-05-02 13:27:00,77.2,41.0,30.34,East,99,1.0,6.0,27,0.00,,,0.00,weatherlink.com 1.10,2013-05-02 17:27:00,
2013-05-02 13:42:00,78.5,39.0,30.34,ESE,119,0.0,6.0,24,0.00,,,0.00,weatherlink.com 1.10,2013-05-02 17:42:00,
2013-05-02 13:57:00,77.7,39.0,30.34,ESE,105,2.0,7.0,25,0.00,,,0.00,weatherlink.com 1.10,2013-05-02 17:57:00,
2013-05-02 14:12:00,75.5,39.0,30.34,ESE,108,10.0,11.0,27,0.00,,,0.00,weatherlink.com 1.10,2013-05-02 18:12:00,
2013-05-02 14:27:00,75.4,40.0,30.34,West,265,1.0,7.0,28,0.00,,,0.00,weatherlink.com 1.10,2013-05-02 18:27:00,
2013-05-02 14:42:00,77.4,39.0,30.33,NNW,333,2.0,6.0,25,0.00,,,0.00,weatherlink.com 1.10,2013-05-02 18:42:00,
2013-05-02 14:57:00,75.5,39.0,30.34,East,91,3.0,7.0,27,0.00,,,0.00,weatherlink.com 1.10,2013-05-02 18:57:00,
2013-05-02 15:12:00,75.1,37.0,30.34,WSW,244,5.0,12.0,25,0.00,,,0.00,weatherlink.com 1.10,2013-05-02 19:12:00,
2013-05-02 15:27:00,73.3,35.0,30.34,ESE,112,3.0,7.0,25,0.00,,,0.00,weatherlink.com 1.10,2013-05-02 19:27:00,
2013-05-02 15:42:00,71.9,38.0,30.35,NNW,330,2.0,11.0,29,0.00,,,0.00,weatherlink.com 1.10,2013-05-02 19:42:00,
2013-05-02 15:57:00,67.6,47.0,30.36,NW,321,2.0,9.0,47,0.00,,,0.00,weatherlink.com 1.10,2013-05-02 19:57:00,
2013-05-02 16:12:00,63.1,45.0,30.37,North,355,2.0,13.0,52,0.00,,,0.00,weatherlink.com 1.10,2013-05-02 20:12:00,
2013-05-02 16:27:00,60.6,45.0,30.37,SE,132,5.0,11.0,57,0.00,,,0.00,weatherlink.com 1.10,2013-05-02 20:27:00,
2013-05-02 16:42:00,60.4,45.0,30.38,ESE,102,4.0,14.0,57,0.00,,,0.00,weatherlink.com 1.10,2013-05-02 20:42:00,
2013-05-02 16:57:00,59.1,45.0,30.39,NE,55,3.0,11.0,60,0.00,,,0.00,weatherlink.com 1.10,2013-05-02 20:57:00,
2013-05-02 17:12:00,56.8,45.0,30.39,NW,304,0.0,12.0,65,0.00,,,0.00,weatherlink.com 1.10,2013-05-02 21:12:00,
2013-05-02 17:27:00,55.9,45.0,30.39,NNW,329,0.0,5.0,66,0.00,,,0.00,weatherlink.com 1.10,2013-05-02 21:27:00,
2013-05-02 17:42:00,54.6,43.0,30.40,SW,223,0.0,10.0,66,0.00,,,0.00,weatherlink.com 1.10,2013-05-02 21:42:00,
2013-05-02 17:57:00,54.1,43.0,30.40,NE,49,3.0,6.0,67,0.00,,,0.00,weatherlink.com 1.10,2013-05-02 21:57:00,
2013-05-02 18:12:00,54.2,43.0,30.41,ESE,103,1.0,4.0,67,0.00,,,0.00,weatherlink.com 1.10,2013-05-02 22:12:00,
2013-05-02 18:27:00,53.9,42.0,30.41,WNW,292,2.0,10.0,65,0.00,,,0.00,weatherlink.com 1.10,2013-05-02 22:27:00,
2013-05-02 18:42:00,52.7,43.0,30.42,SSW,213,1.0,9.0,69,0.00,,,0.00,weatherlink.com 1.10,2013-05-02 22:42:00,
2013-05-02 18:57:00,51.4,42.0,30.43,NNW,339,0.0,7.0,71,0.00,,,0.00,weatherlink.com 1.10,2013-05-02 22:57:00,
2013-05-02 19:12:00,51.2,41.0,30.44,NNE,16,5.0,8.0,67,0.00,,,0.00,weatherlink.com 1.10,2013-05-02 23:12:00,
2013-05-02 19:27:00,50.6,40.0,30.45,ESE,123,1.0,6.0,67,0.00,,,0.00,weatherlink.com 1.10,2013-05-02 23:27:00,
2013-05-02 19:42:00,50.4,40.0,30.45,NNW,342,4.0,6.0,67,0.00,,,0.00,weatherlink.com 1.10,2013-05-02 23:42:00,
2013-05-02 19:57:00,50.2,40.0,30.46,NW,312,0.0,4.0,68,0.00,,,0.00,weatherlink.com 1.10,2013-05-02 23:57:00,
2013-05-02 20:12:00,50.0,39.0,30.46,NW,321,1.0,4.0,66,0.00,,,0.00,weatherlink.com 1.10,2013-05-03 00:12:00,
2013-05-02 20:27:00,50.2,39.0,30.47,North,349,1.0,6.0,66,0.00,,,0.00,weatherlink.com 1.10,2013-05-03 00:27:00,
2013-05-02 20:42:00,50.3,39.0,30.47,East,90,0.0,3.0,66,0.00,,,0.00,weatherlink.com 1.10,2013-05-03 00:42:00,
2013-05-02 20:57:00,50.3,40.0,30.46,SSW,211,0.0,1.0,67,0.00,,,0.00,weatherlink.com 1.10,2013-05-03 00:57:00,
2013-05-02 21:12:00,50.0,39.0,30.46,East,93,0.0,3.0,67,0.00,,,0.00,weatherlink.com 1.10,2013-05-03 01:12:00,
2013-05-02 21:27:00,50.1,39.0,30.47,East,101,0.0,1.0,66,0.00,,,0.00,weatherlink.com 1.10,2013-05-03 01:27:00,
2013-05-02 21:42:00,50.1,39.0,30.46,SE,130,0.0,1.0,67,0.00,,,0.00,weatherlink.com 1.10,2013-05-03 01:42:00,
2013-05-02 21:57:00,50.1,39.0,30.47,NE,54,0.0,3.0,67,0.00,,,0.00,weatherlink.com 1.10,2013-05-03 01:57:00,
2013-05-02 22:12:00,50.1,39.0,30.47,NNE,23,0.0,2.0,66,0.00,,,0.00,weatherlink.com 1.10,2013-05-03 02:12:00,
2013-05-02 22:27:00,49.6,39.0,30.47,NNE,20,0.0,1.0,68,0.00,,,0.00,weatherlink.com 1.10,2013-05-03 02:27:00,
2013-05-02 22:42:00,48.9,39.0,30.47,NNW,344,0.0,2.0,69,0.00,,,0.00,weatherlink.com 1.10,2013-05-03 02:42:00,
2013-05-02 22:57:00,48.4,39.0,30.47,NW,304,0.0,2.0,70,0.00,,,0.00,weatherlink.com 1.10,2013-05-03 02:57:00,
2013-05-02 23:12:00,48.0,39.0,30.47,NNE,15,0.0,1.0,71,0.00,,,0.00,weatherlink.com 1.10,2013-05-03 03:12:00,
2013-05-02 23:27:00,47.5,39.0,30.47,NNW,328,0.0,1.0,72,0.00,,,0.00,weatherlink.com 1.10,2013-05-03 03:27:00,
2013-05-02 23:42:00,47.1,39.0,30.47,NNW,333,0.0,1.0,74,0.00,,,0.00,weatherlink.com 1.10,2013-05-03 03:42:00,
2013-05-02 23:57:00,46.9,39.0,30.47,NNW,333,0.0,1.0,74,0.00,,,0.00,weatherlink.com 1.10,2013-05-03 03:57:00,